sensor_id;sensor_type;location;lat;lon;timestamp;P1;durP1;ratioP1;P2;durP2;ratioP2
23474;SDS011;11910;52.086;21.066;2023-04-06T00:01:33;11.80;;;7.15;;
23474;SDS011;11910;52.086;21.066;2023-04-06T00:03:59;14.10;;;8.02;;
23474;SDS011;11910;52.086;21.066;2023-04-06T00:06:25;11.88;;;7.78;;
23474;SDS011;11910;52.086;21.066;2023-04-06T00:08:51;12.00;;;7.45;;
23474;SDS011;11910;52.086;21.066;2023-04-06T00:11:17;13.10;;;7.60;;
23474;SDS011;11910;52.086;21.066;2023-04-06T00:13:43;12.88;;;8.02;;
23474;SDS011;11910;52.086;21.066;2023-04-06T00:16:08;14.52;;;8.52;;
23474;SDS011;11910;52.086;21.066;2023-04-06T00:18:34;13.63;;;7.88;;
23474;SDS011;11910;52.086;21.066;2023-04-06T00:20:59;11.07;;;6.90;;
23474;SDS011;11910;52.086;21.066;2023-04-06T00:23:25;10.05;;;6.70;;
23474;SDS011;11910;52.086;21.066;2023-04-06T00:25:51;11.55;;;7.57;;
23474;SDS011;11910;52.086;21.066;2023-04-06T00:28:17;14.73;;;7.90;;
23474;SDS011;11910;52.086;21.066;2023-04-06T00:30:42;14.80;;;7.47;;
23474;SDS011;11910;52.086;21.066;2023-04-06T00:33:08;13.15;;;7.78;;
23474;SDS011;11910;52.086;21.066;2023-04-06T00:35:34;12.02;;;7.05;;
23474;SDS011;11910;52.086;21.066;2023-04-06T00:37:59;12.68;;;7.38;;
23474;SDS011;11910;52.086;21.066;2023-04-06T00:40:25;11.13;;;7.28;;
23474;SDS011;11910;52.086;21.066;2023-04-06T00:42:53;11.73;;;6.88;;
23474;SDS011;11910;52.086;21.066;2023-04-06T00:45:19;11.38;;;6.72;;
23474;SDS011;11910;52.086;21.066;2023-04-06T00:47:44;10.60;;;6.30;;
23474;SDS011;11910;52.086;21.066;2023-04-06T00:50:10;10.57;;;6.68;;
23474;SDS011;11910;52.086;21.066;2023-04-06T00:52:36;8.70;;;6.20;;
23474;SDS011;11910;52.086;21.066;2023-04-06T00:55:02;10.32;;;6.03;;
23474;SDS011;11910;52.086;21.066;2023-04-06T00:57:28;10.57;;;6.90;;
23474;SDS011;11910;52.086;21.066;2023-04-06T00:59:53;12.60;;;6.38;;
23474;SDS011;11910;52.086;21.066;2023-04-06T01:02:19;11.30;;;6.47;;
23474;SDS011;11910;52.086;21.066;2023-04-06T01:04:45;10.13;;;6.47;;
23474;SDS011;11910;52.086;21.066;2023-04-06T01:07:11;12.15;;;6.50;;
23474;SDS011;11910;52.086;21.066;2023-04-06T01:09:36;11.50;;;7.20;;
23474;SDS011;11910;52.086;21.066;2023-04-06T01:12:02;12.93;;;7.90;;
23474;SDS011;11910;52.086;21.066;2023-04-06T01:14:28;12.35;;;7.57;;
23474;SDS011;11910;52.086;21.066;2023-04-06T01:16:54;14.35;;;8.07;;
23474;SDS011;11910;52.086;21.066;2023-04-06T01:19:22;12.32;;;7.47;;
23474;SDS011;11910;52.086;21.066;2023-04-06T01:21:48;11.60;;;7.10;;
23474;SDS011;11910;52.086;21.066;2023-04-06T01:24:15;11.40;;;7.03;;
23474;SDS011;11910;52.086;21.066;2023-04-06T01:26:43;11.90;;;7.40;;
23474;SDS011;11910;52.086;21.066;2023-04-06T01:29:09;11.82;;;7.53;;
23474;SDS011;11910;52.086;21.066;2023-04-06T01:31:35;12.20;;;7.03;;
23474;SDS011;11910;52.086;21.066;2023-04-06T01:34:01;12.02;;;6.85;;
23474;SDS011;11910;52.086;21.066;2023-04-06T01:36:26;12.50;;;7.85;;
23474;SDS011;11910;52.086;21.066;2023-04-06T01:38:52;12.13;;;6.93;;
23474;SDS011;11910;52.086;21.066;2023-04-06T01:41:17;10.15;;;6.20;;
23474;SDS011;11910;52.086;21.066;2023-04-06T01:43:44;10.93;;;6.90;;
23474;SDS011;11910;52.086;21.066;2023-04-06T01:46:10;11.45;;;7.32;;
23474;SDS011;11910;52.086;21.066;2023-04-06T01:48:36;11.45;;;6.85;;
23474;SDS011;11910;52.086;21.066;2023-04-06T01:51:01;11.25;;;6.88;;
23474;SDS011;11910;52.086;21.066;2023-04-06T01:53:27;10.82;;;6.90;;
23474;SDS011;11910;52.086;21.066;2023-04-06T01:55:52;11.05;;;6.38;;
23474;SDS011;11910;52.086;21.066;2023-04-06T01:58:18;10.27;;;6.20;;
23474;SDS011;11910;52.086;21.066;2023-04-06T02:00:44;14.32;;;6.88;;
23474;SDS011;11910;52.086;21.066;2023-04-06T02:03:09;11.10;;;6.43;;
23474;SDS011;11910;52.086;21.066;2023-04-06T02:05:35;10.95;;;6.88;;
23474;SDS011;11910;52.086;21.066;2023-04-06T02:08:03;9.15;;;5.93;;
23474;SDS011;11910;52.086;21.066;2023-04-06T02:10:30;10.70;;;6.93;;
23474;SDS011;11910;52.086;21.066;2023-04-06T02:12:56;12.20;;;7.22;;
23474;SDS011;11910;52.086;21.066;2023-04-06T02:15:21;9.85;;;6.10;;
23474;SDS011;11910;52.086;21.066;2023-04-06T02:17:47;13.00;;;6.88;;
23474;SDS011;11910;52.086;21.066;2023-04-06T02:20:12;10.90;;;6.53;;
23474;SDS011;11910;52.086;21.066;2023-04-06T02:22:38;9.90;;;6.30;;
23474;SDS011;11910;52.086;21.066;2023-04-06T02:25:04;8.82;;;5.95;;
23474;SDS011;11910;52.086;21.066;2023-04-06T02:27:30;10.60;;;6.03;;
23474;SDS011;11910;52.086;21.066;2023-04-06T02:29:55;13.63;;;6.70;;
23474;SDS011;11910;52.086;21.066;2023-04-06T02:32:21;11.48;;;6.35;;
23474;SDS011;11910;52.086;21.066;2023-04-06T02:34:47;8.07;;;5.63;;
23474;SDS011;11910;52.086;21.066;2023-04-06T02:37:12;8.82;;;5.80;;
23474;SDS011;11910;52.086;21.066;2023-04-06T02:39:38;9.75;;;5.75;;
23474;SDS011;11910;52.086;21.066;2023-04-06T02:42:03;9.02;;;5.78;;
23474;SDS011;11910;52.086;21.066;2023-04-06T02:44:29;10.10;;;5.47;;
23474;SDS011;11910;52.086;21.066;2023-04-06T02:46:55;10.10;;;5.53;;
23474;SDS011;11910;52.086;21.066;2023-04-06T02:49:21;8.68;;;5.50;;
23474;SDS011;11910;52.086;21.066;2023-04-06T02:51:47;6.35;;;4.25;;
23474;SDS011;11910;52.086;21.066;2023-04-06T02:54:13;8.77;;;5.28;;
23474;SDS011;11910;52.086;21.066;2023-04-06T02:56:41;8.32;;;4.88;;
23474;SDS011;11910;52.086;21.066;2023-04-06T02:59:08;9.45;;;5.28;;
23474;SDS011;11910;52.086;21.066;2023-04-06T03:01:33;8.00;;;5.10;;
23474;SDS011;11910;52.086;21.066;2023-04-06T03:03:59;8.73;;;5.28;;
23474;SDS011;11910;52.086;21.066;2023-04-06T03:06:25;9.35;;;5.45;;
23474;SDS011;11910;52.086;21.066;2023-04-06T03:08:51;8.20;;;5.05;;
23474;SDS011;11910;52.086;21.066;2023-04-06T03:11:16;8.73;;;5.20;;
23474;SDS011;11910;52.086;21.066;2023-04-06T03:13:42;9.45;;;5.30;;
23474;SDS011;11910;52.086;21.066;2023-04-06T03:16:08;9.35;;;5.40;;
23474;SDS011;11910;52.086;21.066;2023-04-06T03:18:33;9.70;;;5.43;;
23474;SDS011;11910;52.086;21.066;2023-04-06T03:20:59;9.55;;;5.60;;
23474;SDS011;11910;52.086;21.066;2023-04-06T03:23:25;8.77;;;5.25;;
23474;SDS011;11910;52.086;21.066;2023-04-06T03:25:51;9.43;;;5.72;;
23474;SDS011;11910;52.086;21.066;2023-04-06T03:28:17;9.23;;;5.55;;
23474;SDS011;11910;52.086;21.066;2023-04-06T03:30:42;9.13;;;5.65;;
23474;SDS011;11910;52.086;21.066;2023-04-06T03:33:08;8.80;;;5.85;;
23474;SDS011;11910;52.086;21.066;2023-04-06T03:35:34;9.00;;;5.88;;
23474;SDS011;11910;52.086;21.066;2023-04-06T03:38:01;11.38;;;5.70;;
23474;SDS011;11910;52.086;21.066;2023-04-06T03:40:27;10.88;;;6.47;;
23474;SDS011;11910;52.086;21.066;2023-04-06T03:42:53;9.68;;;5.47;;
23474;SDS011;11910;52.086;21.066;2023-04-06T03:45:19;11.02;;;6.10;;
23474;SDS011;11910;52.086;21.066;2023-04-06T03:47:45;12.32;;;6.00;;
23474;SDS011;11910;52.086;21.066;2023-04-06T03:50:11;10.55;;;6.13;;
23474;SDS011;11910;52.086;21.066;2023-04-06T03:52:36;11.13;;;5.88;;
23474;SDS011;11910;52.086;21.066;2023-04-06T03:55:02;12.45;;;6.40;;
23474;SDS011;11910;52.086;21.066;2023-04-06T03:57:28;12.82;;;6.45;;
23474;SDS011;11910;52.086;21.066;2023-04-06T03:59:54;12.60;;;6.38;;
23474;SDS011;11910;52.086;21.066;2023-04-06T04:02:20;10.70;;;5.57;;
23474;SDS011;11910;52.086;21.066;2023-04-06T04:04:45;11.98;;;6.65;;
23474;SDS011;11910;52.086;21.066;2023-04-06T04:07:11;13.43;;;6.40;;
23474;SDS011;11910;52.086;21.066;2023-04-06T04:09:36;11.38;;;6.30;;
23474;SDS011;11910;52.086;21.066;2023-04-06T04:12:02;12.43;;;6.63;;
23474;SDS011;11910;52.086;21.066;2023-04-06T04:14:28;13.68;;;6.45;;
23474;SDS011;11910;52.086;21.066;2023-04-06T04:16:53;13.35;;;6.93;;
23474;SDS011;11910;52.086;21.066;2023-04-06T04:19:19;15.18;;;6.75;;
23474;SDS011;11910;52.086;21.066;2023-04-06T04:21:46;11.13;;;6.68;;
23474;SDS011;11910;52.086;21.066;2023-04-06T04:24:12;14.45;;;7.30;;
23474;SDS011;11910;52.086;21.066;2023-04-06T04:26:38;10.60;;;6.75;;
23474;SDS011;11910;52.086;21.066;2023-04-06T04:29:05;15.65;;;7.30;;
23474;SDS011;11910;52.086;21.066;2023-04-06T04:31:30;15.13;;;6.93;;
23474;SDS011;11910;52.086;21.066;2023-04-06T04:33:57;14.45;;;6.53;;
23474;SDS011;11910;52.086;21.066;2023-04-06T04:36:24;14.98;;;6.70;;
23474;SDS011;11910;52.086;21.066;2023-04-06T04:38:50;11.05;;;6.35;;
23474;SDS011;11910;52.086;21.066;2023-04-06T04:41:16;14.15;;;7.32;;
23474;SDS011;11910;52.086;21.066;2023-04-06T04:43:42;13.82;;;6.75;;
23474;SDS011;11910;52.086;21.066;2023-04-06T04:46:07;12.85;;;6.82;;
23474;SDS011;11910;52.086;21.066;2023-04-06T04:48:33;16.17;;;7.60;;
23474;SDS011;11910;52.086;21.066;2023-04-06T04:50:58;12.18;;;6.68;;
23474;SDS011;11910;52.086;21.066;2023-04-06T04:53:24;12.27;;;6.47;;
23474;SDS011;11910;52.086;21.066;2023-04-06T04:55:50;12.07;;;6.70;;
23474;SDS011;11910;52.086;21.066;2023-04-06T04:58:16;12.40;;;6.05;;
23474;SDS011;11910;52.086;21.066;2023-04-06T05:00:42;12.85;;;6.55;;
23474;SDS011;11910;52.086;21.066;2023-04-06T05:03:08;13.32;;;6.60;;
23474;SDS011;11910;52.086;21.066;2023-04-06T05:05:34;11.27;;;5.95;;
23474;SDS011;11910;52.086;21.066;2023-04-06T05:08:01;13.45;;;6.57;;
23474;SDS011;11910;52.086;21.066;2023-04-06T05:10:27;11.85;;;6.20;;
23474;SDS011;11910;52.086;21.066;2023-04-06T05:12:52;10.35;;;5.78;;
23474;SDS011;11910;52.086;21.066;2023-04-06T05:15:18;9.73;;;5.75;;
23474;SDS011;11910;52.086;21.066;2023-04-06T05:17:44;12.18;;;5.97;;
23474;SDS011;11910;52.086;21.066;2023-04-06T05:20:10;9.50;;;5.47;;
23474;SDS011;11910;52.086;21.066;2023-04-06T05:22:36;9.93;;;5.13;;
23474;SDS011;11910;52.086;21.066;2023-04-06T05:25:02;9.25;;;5.30;;
23474;SDS011;11910;52.086;21.066;2023-04-06T05:27:27;10.30;;;5.55;;
23474;SDS011;11910;52.086;21.066;2023-04-06T05:29:53;9.73;;;5.18;;
23474;SDS011;11910;52.086;21.066;2023-04-06T05:32:19;11.43;;;5.70;;
23474;SDS011;11910;52.086;21.066;2023-04-06T05:34:48;10.32;;;5.53;;
23474;SDS011;11910;52.086;21.066;2023-04-06T05:37:14;9.35;;;5.40;;
23474;SDS011;11910;52.086;21.066;2023-04-06T05:39:40;8.85;;;5.28;;
23474;SDS011;11910;52.086;21.066;2023-04-06T05:42:06;10.57;;;5.32;;
23474;SDS011;11910;52.086;21.066;2023-04-06T05:44:32;11.95;;;5.15;;
23474;SDS011;11910;52.086;21.066;2023-04-06T05:46:58;9.13;;;5.00;;
23474;SDS011;11910;52.086;21.066;2023-04-06T05:49:23;9.20;;;4.80;;
23474;SDS011;11910;52.086;21.066;2023-04-06T05:51:49;8.18;;;4.60;;
23474;SDS011;11910;52.086;21.066;2023-04-06T05:54:15;8.60;;;4.60;;
23474;SDS011;11910;52.086;21.066;2023-04-06T05:56:40;8.13;;;4.43;;
23474;SDS011;11910;52.086;21.066;2023-04-06T05:59:06;7.25;;;4.65;;
23474;SDS011;11910;52.086;21.066;2023-04-06T06:01:32;8.80;;;4.95;;
23474;SDS011;11910;52.086;21.066;2023-04-06T06:04:00;10.05;;;4.93;;
23474;SDS011;11910;52.086;21.066;2023-04-06T06:06:27;11.43;;;4.97;;
23474;SDS011;11910;52.086;21.066;2023-04-06T06:08:55;9.15;;;4.38;;
23474;SDS011;11910;52.086;21.066;2023-04-06T06:11:23;8.88;;;4.47;;
23474;SDS011;11910;52.086;21.066;2023-04-06T06:13:50;12.13;;;5.00;;
23474;SDS011;11910;52.086;21.066;2023-04-06T06:16:16;10.48;;;5.40;;
23474;SDS011;11910;52.086;21.066;2023-04-06T06:18:42;11.13;;;4.35;;
23474;SDS011;11910;52.086;21.066;2023-04-06T06:21:07;8.63;;;4.53;;
23474;SDS011;11910;52.086;21.066;2023-04-06T06:23:34;14.63;;;4.78;;
23474;SDS011;11910;52.086;21.066;2023-04-06T06:26:00;8.60;;;4.70;;
23474;SDS011;11910;52.086;21.066;2023-04-06T06:28:26;13.73;;;7.25;;
23474;SDS011;11910;52.086;21.066;2023-04-06T06:30:52;37.47;;;19.00;;
23474;SDS011;11910;52.086;21.066;2023-04-06T06:33:17;15.05;;;9.35;;
23474;SDS011;11910;52.086;21.066;2023-04-06T06:35:43;11.55;;;6.43;;
23474;SDS011;11910;52.086;21.066;2023-04-06T06:38:08;10.98;;;5.97;;
23474;SDS011;11910;52.086;21.066;2023-04-06T06:40:34;11.43;;;4.78;;
23474;SDS011;11910;52.086;21.066;2023-04-06T06:43:00;10.52;;;6.60;;
23474;SDS011;11910;52.086;21.066;2023-04-06T06:45:25;9.02;;;4.60;;
23474;SDS011;11910;52.086;21.066;2023-04-06T06:47:51;7.38;;;4.82;;
23474;SDS011;11910;52.086;21.066;2023-04-06T06:50:17;8.65;;;5.22;;
23474;SDS011;11910;52.086;21.066;2023-04-06T06:52:42;9.50;;;4.32;;
23474;SDS011;11910;52.086;21.066;2023-04-06T06:55:09;7.72;;;4.35;;
23474;SDS011;11910;52.086;21.066;2023-04-06T06:57:35;9.82;;;4.35;;
23474;SDS011;11910;52.086;21.066;2023-04-06T07:00:01;8.43;;;4.00;;
23474;SDS011;11910;52.086;21.066;2023-04-06T07:02:27;6.80;;;4.25;;
23474;SDS011;11910;52.086;21.066;2023-04-06T07:04:53;11.98;;;4.00;;
23474;SDS011;11910;52.086;21.066;2023-04-06T07:07:18;8.00;;;4.00;;
23474;SDS011;11910;52.086;21.066;2023-04-06T07:09:47;6.45;;;3.65;;
23474;SDS011;11910;52.086;21.066;2023-04-06T07:12:12;6.20;;;3.53;;
23474;SDS011;11910;52.086;21.066;2023-04-06T07:14:38;5.70;;;3.20;;
23474;SDS011;11910;52.086;21.066;2023-04-06T07:17:04;5.90;;;3.30;;
23474;SDS011;11910;52.086;21.066;2023-04-06T07:19:29;7.18;;;3.13;;
23474;SDS011;11910;52.086;21.066;2023-04-06T07:21:55;6.57;;;3.85;;
23474;SDS011;11910;52.086;21.066;2023-04-06T07:24:21;5.18;;;3.33;;
23474;SDS011;11910;52.086;21.066;2023-04-06T07:26:47;6.60;;;3.60;;
23474;SDS011;11910;52.086;21.066;2023-04-06T07:29:12;7.80;;;3.63;;
23474;SDS011;11910;52.086;21.066;2023-04-06T07:31:38;8.38;;;4.32;;
23474;SDS011;11910;52.086;21.066;2023-04-06T07:34:03;8.23;;;4.15;;
23474;SDS011;11910;52.086;21.066;2023-04-06T07:36:29;10.88;;;4.45;;
23474;SDS011;11910;52.086;21.066;2023-04-06T07:38:54;10.43;;;4.25;;
23474;SDS011;11910;52.086;21.066;2023-04-06T07:41:20;8.00;;;4.13;;
23474;SDS011;11910;52.086;21.066;2023-04-06T07:43:46;9.25;;;4.60;;
23474;SDS011;11910;52.086;21.066;2023-04-06T07:46:12;8.40;;;4.32;;
23474;SDS011;11910;52.086;21.066;2023-04-06T07:48:37;6.10;;;3.97;;
23474;SDS011;11910;52.086;21.066;2023-04-06T07:51:03;9.52;;;4.28;;
23474;SDS011;11910;52.086;21.066;2023-04-06T07:53:29;8.60;;;4.13;;
23474;SDS011;11910;52.086;21.066;2023-04-06T07:55:55;8.38;;;4.50;;
23474;SDS011;11910;52.086;21.066;2023-04-06T07:58:26;9.82;;;4.07;;
23474;SDS011;11910;52.086;21.066;2023-04-06T08:00:53;6.40;;;3.67;;
23474;SDS011;11910;52.086;21.066;2023-04-06T08:03:20;10.00;;;3.70;;
23474;SDS011;11910;52.086;21.066;2023-04-06T08:05:50;7.50;;;3.83;;
23474;SDS011;11910;52.086;21.066;2023-04-06T08:08:16;9.02;;;4.32;;
23474;SDS011;11910;52.086;21.066;2023-04-06T08:10:42;12.82;;;3.90;;
23474;SDS011;11910;52.086;21.066;2023-04-06T08:13:07;8.15;;;4.00;;
23474;SDS011;11910;52.086;21.066;2023-04-06T08:15:33;8.63;;;3.83;;
23474;SDS011;11910;52.086;21.066;2023-04-06T08:17:59;7.80;;;3.95;;
23474;SDS011;11910;52.086;21.066;2023-04-06T08:20:24;7.00;;;4.10;;
23474;SDS011;11910;52.086;21.066;2023-04-06T08:22:52;6.28;;;3.78;;
23474;SDS011;11910;52.086;21.066;2023-04-06T08:25:18;7.55;;;4.20;;
23474;SDS011;11910;52.086;21.066;2023-04-06T08:27:44;8.40;;;4.13;;
23474;SDS011;11910;52.086;21.066;2023-04-06T08:30:09;8.48;;;3.97;;
23474;SDS011;11910;52.086;21.066;2023-04-06T08:32:35;6.10;;;3.50;;
23474;SDS011;11910;52.086;21.066;2023-04-06T08:35:01;5.68;;;3.72;;
23474;SDS011;11910;52.086;21.066;2023-04-06T08:37:27;7.88;;;3.75;;
23474;SDS011;11910;52.086;21.066;2023-04-06T08:39:52;7.93;;;3.63;;
23474;SDS011;11910;52.086;21.066;2023-04-06T08:42:21;8.35;;;4.10;;
23474;SDS011;11910;52.086;21.066;2023-04-06T08:44:52;5.93;;;3.63;;
23474;SDS011;11910;52.086;21.066;2023-04-06T08:47:20;5.53;;;3.97;;
23474;SDS011;11910;52.086;21.066;2023-04-06T08:49:46;9.82;;;4.05;;
23474;SDS011;11910;52.086;21.066;2023-04-06T08:52:12;6.97;;;3.55;;
23474;SDS011;11910;52.086;21.066;2023-04-06T08:54:40;7.40;;;3.70;;
23474;SDS011;11910;52.086;21.066;2023-04-06T08:57:05;8.77;;;4.35;;
23474;SDS011;11910;52.086;21.066;2023-04-06T08:59:32;9.32;;;3.72;;
23474;SDS011;11910;52.086;21.066;2023-04-06T09:01:58;5.88;;;3.95;;
23474;SDS011;11910;52.086;21.066;2023-04-06T09:04:28;8.73;;;4.25;;
23474;SDS011;11910;52.086;21.066;2023-04-06T09:06:53;6.05;;;4.03;;
23474;SDS011;11910;52.086;21.066;2023-04-06T09:09:21;7.25;;;3.88;;
23474;SDS011;11910;52.086;21.066;2023-04-06T09:11:50;7.03;;;3.78;;
23474;SDS011;11910;52.086;21.066;2023-04-06T09:14:16;7.15;;;3.80;;
23474;SDS011;11910;52.086;21.066;2023-04-06T09:38:12;7.05;;;3.95;;
23474;SDS011;11910;52.086;21.066;2023-04-06T09:40:47;7.47;;;3.63;;
23474;SDS011;11910;52.086;21.066;2023-04-06T09:43:25;7.78;;;3.88;;
23474;SDS011;11910;52.086;21.066;2023-04-06T09:45:52;6.20;;;3.90;;
23474;SDS011;11910;52.086;21.066;2023-04-06T09:48:30;10.13;;;4.30;;
23474;SDS011;11910;52.086;21.066;2023-04-06T09:50:59;6.38;;;4.10;;
23474;SDS011;11910;52.086;21.066;2023-04-06T09:53:28;6.40;;;4.20;;
23474;SDS011;11910;52.086;21.066;2023-04-06T09:55:57;7.70;;;4.72;;
23474;SDS011;11910;52.086;21.066;2023-04-06T09:58:31;7.38;;;4.80;;
23474;SDS011;11910;52.086;21.066;2023-04-06T10:01:06;8.90;;;4.63;;
23474;SDS011;11910;52.086;21.066;2023-04-06T10:03:44;9.25;;;4.85;;
23474;SDS011;11910;52.086;21.066;2023-04-06T10:06:11;8.48;;;4.90;;
23474;SDS011;11910;52.086;21.066;2023-04-06T10:08:40;9.50;;;5.85;;
23474;SDS011;11910;52.086;21.066;2023-04-06T10:11:08;10.32;;;6.43;;
23474;SDS011;11910;52.086;21.066;2023-04-06T10:13:35;7.57;;;5.47;;
23474;SDS011;11910;52.086;21.066;2023-04-06T10:16:01;7.72;;;5.15;;
23474;SDS011;11910;52.086;21.066;2023-04-06T10:18:27;8.52;;;5.13;;
23474;SDS011;11910;52.086;21.066;2023-04-06T10:20:55;9.93;;;6.20;;
23474;SDS011;11910;52.086;21.066;2023-04-06T10:26:12;11.32;;;6.28;;
23474;SDS011;11910;52.086;21.066;2023-04-06T10:28:41;11.25;;;7.47;;
23474;SDS011;11910;52.086;21.066;2023-04-06T10:31:07;10.60;;;7.53;;
23474;SDS011;11910;52.086;21.066;2023-04-06T10:33:33;10.25;;;7.13;;
23474;SDS011;11910;52.086;21.066;2023-04-06T10:36:12;11.85;;;7.45;;
23474;SDS011;11910;52.086;21.066;2023-04-06T10:38:39;11.48;;;7.90;;
23474;SDS011;11910;52.086;21.066;2023-04-06T10:41:05;11.57;;;7.70;;
23474;SDS011;11910;52.086;21.066;2023-04-06T10:43:35;10.65;;;7.03;;
23474;SDS011;11910;52.086;21.066;2023-04-06T10:46:03;9.35;;;6.32;;
23474;SDS011;11910;52.086;21.066;2023-04-06T10:48:39;9.93;;;6.75;;
23474;SDS011;11910;52.086;21.066;2023-04-06T10:51:15;10.25;;;6.82;;
23474;SDS011;11910;52.086;21.066;2023-04-06T10:53:45;10.40;;;7.00;;
23474;SDS011;11910;52.086;21.066;2023-04-06T10:56:27;11.95;;;6.40;;
23474;SDS011;11910;52.086;21.066;2023-04-06T10:58:55;9.02;;;6.30;;
23474;SDS011;11910;52.086;21.066;2023-04-06T11:01:21;9.55;;;5.72;;
23474;SDS011;11910;52.086;21.066;2023-04-06T11:03:49;10.93;;;5.68;;
23474;SDS011;11910;52.086;21.066;2023-04-06T11:06:20;8.90;;;6.10;;
23474;SDS011;11910;52.086;21.066;2023-04-06T11:08:54;8.98;;;6.05;;
23474;SDS011;11910;52.086;21.066;2023-04-06T11:11:22;11.32;;;7.00;;
23474;SDS011;11910;52.086;21.066;2023-04-06T11:17:30;10.45;;;7.15;;
23474;SDS011;11910;52.086;21.066;2023-04-06T11:19:57;9.55;;;7.20;;
23474;SDS011;11910;52.086;21.066;2023-04-06T11:22:23;8.88;;;6.50;;
23474;SDS011;11910;52.086;21.066;2023-04-06T11:24:50;10.45;;;7.15;;
23474;SDS011;11910;52.086;21.066;2023-04-06T11:27:38;9.82;;;7.32;;
23474;SDS011;11910;52.086;21.066;2023-04-06T11:30:04;11.02;;;7.80;;
23474;SDS011;11910;52.086;21.066;2023-04-06T11:32:42;11.38;;;7.78;;
23474;SDS011;11910;52.086;21.066;2023-04-06T11:38:38;9.85;;;7.80;;
23474;SDS011;11910;52.086;21.066;2023-04-06T11:41:04;10.90;;;8.10;;
23474;SDS011;11910;52.086;21.066;2023-04-06T11:43:31;11.07;;;7.60;;
23474;SDS011;11910;52.086;21.066;2023-04-06T11:46:00;10.18;;;7.70;;
23474;SDS011;11910;52.086;21.066;2023-04-06T11:48:30;10.38;;;7.95;;
23474;SDS011;11910;52.086;21.066;2023-04-06T11:50:59;12.23;;;7.93;;
23474;SDS011;11910;52.086;21.066;2023-04-06T11:53:28;9.98;;;8.45;;
23474;SDS011;11910;52.086;21.066;2023-04-06T11:55:54;11.25;;;8.52;;
23474;SDS011;11910;52.086;21.066;2023-04-06T11:58:20;11.20;;;8.00;;
23474;SDS011;11910;52.086;21.066;2023-04-06T12:03:36;10.90;;;8.15;;
23474;SDS011;11910;52.086;21.066;2023-04-06T12:06:02;11.85;;;7.82;;
23474;SDS011;11910;52.086;21.066;2023-04-06T12:12:06;11.25;;;7.40;;
23474;SDS011;11910;52.086;21.066;2023-04-06T12:14:31;9.00;;;7.13;;
23474;SDS011;11910;52.086;21.066;2023-04-06T12:16:57;9.40;;;6.78;;
23474;SDS011;11910;52.086;21.066;2023-04-06T12:19:33;10.25;;;7.15;;
23474;SDS011;11910;52.086;21.066;2023-04-06T12:21:59;11.02;;;7.30;;
23474;SDS011;11910;52.086;21.066;2023-04-06T12:24:35;8.63;;;6.20;;
23474;SDS011;11910;52.086;21.066;2023-04-06T12:27:06;10.23;;;6.60;;
23474;SDS011;11910;52.086;21.066;2023-04-06T12:29:47;8.27;;;6.30;;
23474;SDS011;11910;52.086;21.066;2023-04-06T12:32:12;9.60;;;6.75;;
23474;SDS011;11910;52.086;21.066;2023-04-06T12:34:38;10.07;;;7.07;;
23474;SDS011;11910;52.086;21.066;2023-04-06T12:37:04;9.57;;;6.47;;
23474;SDS011;11910;52.086;21.066;2023-04-06T12:39:30;8.27;;;6.15;;
23474;SDS011;11910;52.086;21.066;2023-04-06T12:41:55;10.23;;;6.93;;
23474;SDS011;11910;52.086;21.066;2023-04-06T12:44:22;10.23;;;6.38;;
23474;SDS011;11910;52.086;21.066;2023-04-06T12:46:48;7.93;;;5.93;;
23474;SDS011;11910;52.086;21.066;2023-04-06T12:49:17;10.30;;;6.50;;
23474;SDS011;11910;52.086;21.066;2023-04-06T12:51:46;7.95;;;6.40;;
23474;SDS011;11910;52.086;21.066;2023-04-06T12:54:21;9.15;;;6.72;;
23474;SDS011;11910;52.086;21.066;2023-04-06T12:56:47;9.18;;;6.93;;
23474;SDS011;11910;52.086;21.066;2023-04-06T12:59:12;13.38;;;7.40;;
23474;SDS011;11910;52.086;21.066;2023-04-06T13:01:41;9.88;;;6.55;;
23474;SDS011;11910;52.086;21.066;2023-04-06T13:04:07;11.57;;;7.10;;
23474;SDS011;11910;52.086;21.066;2023-04-06T13:06:32;9.63;;;6.95;;
23474;SDS011;11910;52.086;21.066;2023-04-06T13:09:04;11.43;;;8.05;;
23474;SDS011;11910;52.086;21.066;2023-04-06T13:11:36;10.07;;;7.07;;
23474;SDS011;11910;52.086;21.066;2023-04-06T13:14:02;11.52;;;8.38;;
23474;SDS011;11910;52.086;21.066;2023-04-06T13:16:27;13.35;;;9.15;;
23474;SDS011;11910;52.086;21.066;2023-04-06T13:18:54;10.32;;;7.60;;
23474;SDS011;11910;52.086;21.066;2023-04-06T13:21:32;10.48;;;7.45;;
23474;SDS011;11910;52.086;21.066;2023-04-06T13:24:13;11.88;;;7.75;;
23474;SDS011;11910;52.086;21.066;2023-04-06T13:26:40;10.15;;;6.60;;
23474;SDS011;11910;52.086;21.066;2023-04-06T13:32:27;9.35;;;6.88;;
23474;SDS011;11910;52.086;21.066;2023-04-06T13:34:56;8.77;;;6.40;;
23474;SDS011;11910;52.086;21.066;2023-04-06T13:37:22;9.98;;;5.93;;
23474;SDS011;11910;52.086;21.066;2023-04-06T13:39:48;11.45;;;7.50;;
23474;SDS011;11910;52.086;21.066;2023-04-06T13:42:13;10.25;;;6.35;;
23474;SDS011;11910;52.086;21.066;2023-04-06T13:44:39;10.48;;;6.80;;
23474;SDS011;11910;52.086;21.066;2023-04-06T13:47:05;8.93;;;6.47;;
23474;SDS011;11910;52.086;21.066;2023-04-06T13:49:30;12.35;;;6.88;;
23474;SDS011;11910;52.086;21.066;2023-04-06T13:51:56;8.60;;;6.13;;
23474;SDS011;11910;52.086;21.066;2023-04-06T13:54:22;9.30;;;6.80;;
23474;SDS011;11910;52.086;21.066;2023-04-06T13:56:47;9.10;;;6.80;;
23474;SDS011;11910;52.086;21.066;2023-04-06T13:59:13;7.55;;;5.75;;
23474;SDS011;11910;52.086;21.066;2023-04-06T14:01:38;9.35;;;6.47;;
23474;SDS011;11910;52.086;21.066;2023-04-06T14:04:04;10.27;;;7.22;;
23474;SDS011;11910;52.086;21.066;2023-04-06T14:06:30;12.10;;;6.90;;
23474;SDS011;11910;52.086;21.066;2023-04-06T14:08:56;9.65;;;6.90;;
23474;SDS011;11910;52.086;21.066;2023-04-06T14:11:22;9.27;;;7.18;;
23474;SDS011;11910;52.086;21.066;2023-04-06T14:13:47;9.32;;;7.20;;
23474;SDS011;11910;52.086;21.066;2023-04-06T14:16:13;9.30;;;7.05;;
23474;SDS011;11910;52.086;21.066;2023-04-06T14:18:39;9.35;;;7.05;;
23474;SDS011;11910;52.086;21.066;2023-04-06T14:21:04;10.25;;;6.82;;
23474;SDS011;11910;52.086;21.066;2023-04-06T14:23:31;8.73;;;6.60;;
23474;SDS011;11910;52.086;21.066;2023-04-06T14:26:03;9.55;;;6.30;;
23474;SDS011;11910;52.086;21.066;2023-04-06T14:28:31;9.63;;;6.78;;
23474;SDS011;11910;52.086;21.066;2023-04-06T14:30:59;11.85;;;6.68;;
23474;SDS011;11910;52.086;21.066;2023-04-06T14:33:25;7.25;;;5.70;;
23474;SDS011;11910;52.086;21.066;2023-04-06T14:35:55;8.77;;;6.03;;
23474;SDS011;11910;52.086;21.066;2023-04-06T14:38:21;7.35;;;5.90;;
23474;SDS011;11910;52.086;21.066;2023-04-06T14:40:47;8.38;;;6.43;;
23474;SDS011;11910;52.086;21.066;2023-04-06T14:43:13;11.07;;;6.60;;
23474;SDS011;11910;52.086;21.066;2023-04-06T14:45:38;8.40;;;5.97;;
23474;SDS011;11910;52.086;21.066;2023-04-06T14:48:04;9.25;;;6.13;;
23474;SDS011;11910;52.086;21.066;2023-04-06T14:50:37;9.35;;;6.50;;
23474;SDS011;11910;52.086;21.066;2023-04-06T14:53:03;8.88;;;6.18;;
23474;SDS011;11910;52.086;21.066;2023-04-06T14:55:29;8.98;;;6.97;;
23474;SDS011;11910;52.086;21.066;2023-04-06T14:57:55;9.20;;;6.03;;
23474;SDS011;11910;52.086;21.066;2023-04-06T15:00:21;9.68;;;6.60;;
23474;SDS011;11910;52.086;21.066;2023-04-06T15:02:47;8.07;;;6.00;;
23474;SDS011;11910;52.086;21.066;2023-04-06T15:05:12;10.13;;;6.60;;
23474;SDS011;11910;52.086;21.066;2023-04-06T15:07:38;10.23;;;6.97;;